Time;durP1;ratioP1;P1;durP2;ratioP2;P2;SDS_P1;SDS_P2;PMS_P1;PMS_P2;Temp;Humidity;BMP_temperature;BMP_pressure;BME280_temperature;BME280_humidity;BME280_pressure;Samples;Min_cycle;Max_cycle;Signal;HPM_P1;HPM_P2
2023/12/06 00:01:53;;;;;;;5.53;1.90;;;;;;;0.64;100.00;101076.16;5045110;28;20041;-72
2023/12/06 00:04:20;;;;;;;7.57;2.40;;;;;;;0.67;100.00;101082.19;5046048;28;20053;-72
2023/12/06 00:06:47;;;;;;;7.45;2.22;;;;;;;0.48;100.00;101060.59;5049526;28;20052;-72
2023/12/06 00:09:14;;;;;;;6.40;2.22;;;;;;;0.60;100.00;101082.16;5048352;28;20053;-71
2023/12/06 00:11:42;;;;;;;5.13;1.90;;;;;;;0.63;100.00;101084.75;5050061;28;20514;-71
2023/12/06 00:14:09;;;;;;;4.28;1.70;;;;;;;0.64;100.00;101089.94;5058395;28;20045;-72
2023/12/06 00:16:39;;;;;;;5.38;2.33;;;;;;;0.43;100.00;101069.13;5059682;28;20060;-72
2023/12/06 00:19:07;;;;;;;4.57;1.90;;;;;;;0.61;100.00;101092.47;5050782;28;20549;-72
2023/12/06 00:21:34;;;;;;;6.25;1.92;;;;;;;0.55;100.00;101077.84;5058561;28;20106;-72
2023/12/06 00:24:01;;;;;;;4.43;1.90;;;;;;;0.58;100.00;101079.56;5060110;28;20084;-72
2023/12/06 00:26:27;;;;;;;5.38;2.00;;;;;;;0.63;100.00;101089.91;5039919;28;20103;-72
2023/12/06 00:28:54;;;;;;;5.63;2.28;;;;;;;0.48;100.00;101091.50;5051188;28;20562;-72
2023/12/06 00:31:21;;;;;;;4.93;2.17;;;;;;;0.48;100.00;101080.31;5048177;28;20056;-72
2023/12/06 00:33:48;;;;;;;4.68;1.80;;;;;;;0.52;100.00;101088.09;5048857;28;20422;-72
2023/12/06 00:36:14;;;;;;;5.55;1.92;;;;;;;0.56;100.00;101076.09;5063929;28;20059;-72
2023/12/06 00:38:41;;;;;;;6.22;2.10;;;;;;;0.61;100.00;101083.88;5054700;28;20045;-72
2023/12/06 00:41:08;;;;;;;6.97;2.65;;;;;;;0.67;100.00;101084.78;5053294;28;20044;-72
2023/12/06 00:43:34;;;;;;;4.68;1.70;;;;;;;0.62;100.00;101085.59;5063809;28;20049;-72
2023/12/06 00:46:01;;;;;;;4.80;1.88;;;;;;;0.53;100.00;101068.34;5048817;28;20090;-72
2023/12/06 00:48:28;;;;;;;9.80;2.47;;;;;;;0.55;100.00;101070.09;5054983;28;20045;-72
2023/12/06 00:50:55;;;;;;;4.00;1.73;;;;;;;0.55;100.00;101069.25;5034582;28;20050;-72
2023/12/06 00:53:21;;;;;;;5.25;2.13;;;;;;;0.60;100.00;101064.97;5047703;28;20491;-72
2023/12/06 00:55:48;;;;;;;3.75;1.60;;;;;;;0.59;100.00;101071.00;5048603;28;20418;-72
2023/12/06 00:58:15;;;;;;;2.85;1.50;;;;;;;0.59;100.00;101067.56;5060015;28;20474;-72
2023/12/06 01:00:42;;;;;;;3.33;1.60;;;;;;;0.50;100.00;101065.75;5059664;28;20366;-72
2023/12/06 01:03:08;;;;;;;2.95;1.38;;;;;;;0.50;100.00;101073.50;5055091;28;20060;-72
2023/12/06 01:05:35;;;;;;;3.60;1.55;;;;;;;0.48;100.00;101063.16;5044885;28;20051;-72
2023/12/06 01:08:02;;;;;;;5.22;1.90;;;;;;;0.47;100.00;101065.72;5055161;28;20049;-71
2023/12/06 01:10:29;;;;;;;3.08;1.50;;;;;;;0.50;100.00;101071.75;5053373;28;20044;-72
2023/12/06 01:12:55;;;;;;;6.60;1.85;;;;;;;0.46;100.00;101062.28;5030825;28;20049;-72
2023/12/06 01:15:22;;;;;;;3.35;1.50;;;;;;;0.43;100.00;101071.72;5046309;28;20253;-72
2023/12/06 01:17:49;;;;;;;3.35;1.50;;;;;;;0.43;100.00;101077.72;5057176;28;20075;-72
2023/12/06 01:20:16;;;;;;;4.28;1.98;;;;;;;0.31;100.00;101069.88;5048056;28;20060;-72
2023/12/06 01:22:43;;;;;;;4.28;1.60;;;;;;;0.24;100.00;101063.78;5053989;28;20436;-72
2023/12/06 01:25:09;;;;;;;4.13;1.67;;;;;;;0.30;100.00;101063.88;5048277;28;20059;-72
2023/12/06 01:27:36;;;;;;;2.30;1.33;;;;;;;0.28;100.00;101057.81;5062964;28;20049;-72
2023/12/06 01:30:04;;;;;;;3.88;1.70;;;;;;;0.02;100.00;101042.13;5050536;28;20067;-72
2023/12/06 01:32:39;;;;;;;4.05;1.70;;;;;;;-0.01;100.00;101027.47;5054309;28;20098;-72
2023/12/06 01:35:07;;;;;;;5.13;1.80;;;;;;;0.15;100.00;101050.81;5050053;28;20052;-71
2023/12/06 01:37:33;;;;;;;3.38;1.67;;;;;;;0.15;100.00;101046.53;5055682;28;20489;-72
2023/12/06 01:40:00;;;;;;;4.25;1.75;;;;;;;-0.03;100.00;101051.50;5051956;28;20060;-72
2023/12/06 01:42:27;;;;;;;3.80;1.70;;;;;;;0.00;100.00;101064.41;5052469;28;20052;-71
2023/12/06 01:44:54;;;;;;;4.72;1.70;;;;;;;-0.01;100.00;101068.66;5049478;28;20049;-72
2023/12/06 01:47:24;;;;;;;5.20;1.85;;;;;;;-0.07;100.00;101045.44;5050212;28;20056;-72
2023/12/06 01:49:53;;;;;;;4.13;1.75;;;;;;;0.09;100.00;101059.34;5048837;28;20139;-72
2023/12/06 01:52:21;;;;;;;4.25;2.22;;;;;;;-0.05;100.00;101051.47;5054744;28;20049;-72
2023/12/06 01:54:48;;;;;;;3.50;1.73;;;;;;;-0.08;100.00;101055.72;5048068;28;20077;-72
2023/12/06 01:57:15;;;;;;;5.25;1.77;;;;;;;-0.09;100.00;101064.28;5049242;28;20476;-72
2023/12/06 01:59:43;;;;;;;4.38;1.92;;;;;;;0.01;100.00;101067.84;5045932;28;20411;-72
2023/12/06 02:02:11;;;;;;;4.93;1.80;;;;;;;0.04;100.00;101068.72;5047232;28;20045;-72
2023/12/06 02:04:38;;;;;;;3.92;1.95;;;;;;;-0.05;100.00;101050.63;5044603;28;20049;-72
2023/12/06 02:07:05;;;;;;;4.45;1.83;;;;;;;0.06;100.00;101063.59;5048194;28;20136;-71
2023/12/06 02:09:32;;;;;;;4.35;1.92;;;;;;;-0.01;100.00;101060.94;5052086;28;20551;-72
2023/12/06 02:11:59;;;;;;;4.30;1.80;;;;;;;0.00;100.00;101064.41;5052631;28;20045;-72
2023/12/06 02:14:26;;;;;;;3.35;1.60;;;;;;;-0.08;100.00;101068.59;5060492;28;20533;-72
2023/12/06 02:16:52;;;;;;;3.47;1.83;;;;;;;-0.23;100.00;101038.38;5049645;28;20048;-72
2023/12/06 02:19:26;;;;;;;5.85;2.55;;;;;;;-0.10;100.00;101078.88;5036842;28;20509;-71
2023/12/06 02:21:54;;;;;;;5.70;2.13;;;;;;;-0.18;100.00;101059.03;5062927;28;20055;-72
2023/12/06 02:24:25;;;;;;;5.05;2.10;;;;;;;-0.15;100.00;101071.94;5050732;28;20501;-72
2023/12/06 02:26:54;;;;;;;4.80;1.80;;;;;;;-0.13;100.00;101076.25;5039360;28;20406;-72
2023/12/06 02:29:23;;;;;;;5.57;2.20;;;;;;;-0.14;100.00;101068.50;5044708;28;20053;-72
2023/12/06 02:31:50;;;;;;;5.70;1.85;;;;;;;-0.11;100.00;101073.69;5053954;28;20086;-72
2023/12/06 02:34:21;;;;;;;5.45;2.10;;;;;;;-0.26;100.00;101066.69;5050336;28;20064;-72
2023/12/06 02:36:50;;;;;;;6.18;2.40;;;;;;;-0.15;100.00;101083.09;5041160;28;20099;-72
2023/12/06 02:39:17;;;;;;;5.75;2.20;;;;;;;-0.33;100.00;101057.16;5051055;28;20061;-72
2023/12/06 02:41:44;;;;;;;4.10;1.85;;;;;;;-0.23;100.00;101064.13;5040447;28;20136;-72
2023/12/06 02:44:11;;;;;;;4.43;1.90;;;;;;;-0.29;100.00;101054.63;5043598;28;20056;-72
2023/12/06 02:46:38;;;;;;;6.50;2.60;;;;;;;-0.33;100.00;101046.88;5057833;28;20045;-72
2023/12/06 02:49:04;;;;;;;4.90;2.25;;;;;;;-0.31;100.00;101056.31;5056834;28;20044;-72
2023/12/06 02:51:31;;;;;;;5.43;2.15;;;;;;;-0.24;100.00;101068.41;5070133;28;20052;-72
2023/12/06 02:53:58;;;;;;;5.63;2.03;;;;;;;-0.25;100.00;101070.97;5058083;28;20053;-72
2023/12/06 02:56:24;;;;;;;3.88;1.80;;;;;;;-0.25;100.00;101073.53;5054631;28;20393;-72
2023/12/06 02:58:51;;;;;;;4.72;2.13;;;;;;;-0.34;100.00;101061.41;5058395;28;20060;-72
2023/12/06 03:01:18;;;;;;;4.47;1.95;;;;;;;-0.36;100.00;101067.41;5050118;28;20065;-72
2023/12/06 03:03:44;;;;;;;4.90;1.92;;;;;;;-0.34;100.00;101052.84;5047450;28;20518;-72
2023/12/06 03:06:11;;;;;;;5.18;1.90;;;;;;;-0.48;100.00;101053.53;5051187;28;20447;-72
2023/12/06 03:08:38;;;;;;;5.93;2.42;;;;;;;-0.52;100.00;101066.34;5055913;28;20056;-72
2023/12/06 03:11:05;;;;;;;3.60;1.90;;;;;;;-0.47;100.00;101050.13;5043690;28;20052;-72
2023/12/06 03:13:31;;;;;;;4.78;1.80;;;;;;;-0.44;100.00;101046.72;5055574;28;20131;-72
2023/12/06 03:15:58;;;;;;;3.33;1.52;;;;;;;-0.50;100.00;101042.34;5056605;28;20134;-72
2023/12/06 03:18:25;;;;;;;4.68;1.90;;;;;;;-0.56;100.00;101042.28;5056858;28;20088;-72
2023/12/06 03:20:52;;;;;;;3.88;1.98;;;;;;;-0.58;100.00;101043.97;5040320;28;20044;-72
2023/12/06 03:23:19;;;;;;;3.88;1.70;;;;;;;-0.50;100.00;101044.06;5050484;28;20463;-72
2023/12/06 03:25:45;;;;;;;4.07;1.70;;;;;;;-0.47;100.00;101055.25;5047635;28;20049;-72
2023/12/06 03:28:12;;;;;;;3.88;1.80;;;;;;;-0.52;100.00;101048.34;5044921;28;20048;-72
2023/12/06 03:30:39;;;;;;;4.20;1.83;;;;;;;-0.52;100.00;101038.03;5050061;28;20457;-72
2023/12/06 03:33:05;;;;;;;6.47;2.20;;;;;;;-0.52;100.00;101038.91;5050994;28;20254;-72
2023/12/06 03:35:32;;;;;;;4.53;1.90;;;;;;;-0.58;100.00;101042.25;5078896;28;20376;-72
2023/12/06 03:37:59;;;;;;;5.97;2.10;;;;;;;-0.70;100.00;101029.25;5063391;28;20202;-73
2023/12/06 03:40:25;;;;;;;5.13;1.83;;;;;;;-0.54;100.00;101050.88;5043972;28;20056;-72
2023/12/06 03:42:53;;;;;;;6.07;2.20;;;;;;;-0.69;100.00;101006.94;5062401;28;20107;-72
2023/12/06 03:45:20;;;;;;;7.03;1.92;;;;;;;-0.62;100.00;101031.91;5039466;28;20530;-72
2023/12/06 03:47:47;;;;;;;4.40;1.60;;;;;;;-0.63;100.00;101027.63;5051764;28;20047;-73
2023/12/06 03:50:14;;;;;;;3.75;1.70;;;;;;;-0.59;100.00;101034.53;5057504;28;20498;-72
2023/12/06 03:52:41;;;;;;;4.43;1.77;;;;;;;-0.60;100.00;101028.53;5048624;28;20056;-72
2023/12/06 03:55:07;;;;;;;5.45;2.30;;;;;;;-0.50;100.00;101038.91;5052358;28;20409;-72
2023/12/06 03:57:34;;;;;;;3.83;1.80;;;;;;;-0.55;100.00;101018.28;5049696;28;20084;-72
2023/12/06 04:00:01;;;;;;;5.95;1.92;;;;;;;-0.69;100.00;101001.81;5050375;28;20084;-72
2023/12/06 04:02:28;;;;;;;4.05;1.73;;;;;;;-0.54;100.00;101029.44;5037671;28;20049;-72
2023/12/06 04:04:56;;;;;;;6.30;2.00;;;;;;;-0.75;100.00;101028.31;5058865;28;20044;-72
2023/12/06 04:07:23;;;;;;;7.07;2.28;;;;;;;-0.85;100.00;100998.16;5064477;28;20048;-72
2023/12/06 04:09:51;;;;;;;2.92;1.50;;;;;;;-0.60;100.00;101038.81;5046672;28;20461;-73
2023/12/06 04:12:17;;;;;;;2.58;1.40;;;;;;;-0.65;100.00;101016.44;5048994;28;20538;-73
2023/12/06 04:14:44;;;;;;;3.97;1.77;;;;;;;-0.63;100.00;101030.19;5046361;28;20052;-72
2023/12/06 04:17:11;;;;;;;4.15;1.65;;;;;;;-0.72;100.00;101019.78;5063145;28;20509;-72
2023/12/06 04:19:40;;;;;;;5.60;1.60;;;;;;;-0.59;100.00;101024.22;5041621;28;20048;-72
2023/12/06 04:22:07;;;;;;;2.90;1.50;;;;;;;-0.64;100.00;101025.88;5063003;28;20060;-73
2023/12/06 04:24:36;;;;;;;4.30;1.83;;;;;;;-0.72;100.00;101007.78;5043369;28;20073;-72
2023/12/06 04:27:03;;;;;;;3.45;1.50;;;;;;;-0.64;100.00;101024.19;5045991;28;20510;-72
2023/12/06 04:29:31;;;;;;;3.83;1.70;;;;;;;-0.77;100.00;101017.16;5055000;28;20401;-72
2023/12/06 04:31:58;;;;;;;3.67;1.60;;;;;;;-0.66;100.00;101027.56;5059323;28;20077;-72
2023/12/06 04:34:24;;;;;;;2.95;1.50;;;;;;;-0.67;100.00;101029.28;5040525;28;20057;-72
2023/12/06 04:36:54;;;;;;;3.90;1.60;;;;;;;-0.64;100.00;101028.44;5057922;28;20052;-72
2023/12/06 04:39:21;;;;;;;3.60;1.45;;;;;;;-0.69;100.00;101028.41;5052809;28;20072;-72
2023/12/06 04:41:48;;;;;;;4.80;1.90;;;;;;;-0.74;100.00;101032.63;5062190;28;20209;-72
2023/12/06 04:44:15;;;;;;;3.75;1.63;;;;;;;-0.81;100.00;101013.66;5051435;28;20628;-72
2023/12/06 04:46:42;;;;;;;7.32;2.17;;;;;;;-0.69;100.00;101025.84;5068971;28;20497;-72
2023/12/06 04:49:08;;;;;;;3.47;1.52;;;;;;;-0.73;100.00;101020.63;5067733;28;20052;-72
2023/12/06 04:51:35;;;;;;;4.25;1.65;;;;;;;-0.61;100.00;101021.63;5050784;28;20467;-72
2023/12/06 04:54:02;;;;;;;3.10;1.50;;;;;;;-0.72;100.00;101030.06;5047338;28;20134;-72
2023/12/06 04:56:29;;;;;;;4.55;1.70;;;;;;;-0.70;100.00;101025.81;5051462;28;20424;-72
2023/12/06 04:58:55;;;;;;;4.20;1.58;;;;;;;-0.71;100.00;101030.06;5054173;28;20479;-72
2023/12/06 05:01:22;;;;;;;4.10;1.75;;;;;;;-0.78;100.00;101018.88;5063349;28;20626;-72
2023/12/06 05:03:49;;;;;;;4.07;1.88;;;;;;;-0.81;100.00;101013.66;5052675;28;20103;-73
2023/12/06 05:06:16;;;;;;;3.13;1.60;;;;;;;-0.90;100.00;101015.25;5052613;28;20466;-72
2023/12/06 05:08:42;;;;;;;3.42;1.55;;;;;;;-0.94;100.00;101013.47;5051948;28;20055;-72
2023/12/06 05:11:09;;;;;;;4.63;1.80;;;;;;;-0.82;100.00;101029.94;5049257;28;20072;-72
2023/12/06 05:13:35;;;;;;;4.88;1.92;;;;;;;-0.98;100.00;101004.84;5063335;28;20048;-72
2023/12/06 05:16:03;;;;;;;5.40;2.08;;;;;;;-0.89;100.00;101020.41;5051945;28;20075;-72
2023/12/06 05:18:30;;;;;;;3.13;1.63;;;;;;;-0.80;100.00;101027.38;5066263;28;20127;-72
2023/12/06 05:20:57;;;;;;;3.90;1.50;;;;;;;-0.78;100.00;101012.84;5057086;28;20480;-72
2023/12/06 05:23:24;;;;;;;7.60;1.67;;;;;;;-0.75;100.00;101020.59;5070132;28;20531;-72
2023/12/06 05:25:51;;;;;;;3.97;1.52;;;;;;;-0.82;100.00;101022.22;5055842;28;20407;-72
2023/12/06 05:28:18;;;;;;;5.97;1.77;;;;;;;-0.85;100.00;101013.59;5056072;28;20053;-72
2023/12/06 05:30:44;;;;;;;3.30;1.60;;;;;;;-0.83;100.00;101024.78;5055622;28;20048;-72
2023/12/06 05:33:11;;;;;;;5.97;2.10;;;;;;;-1.04;100.00;101010.78;5063141;28;20480;-72
2023/12/06 05:35:38;;;;;;;5.00;1.98;;;;;;;-1.15;100.00;101030.34;5059182;28;20052;-72
2023/12/06 05:38:05;;;;;;;3.83;1.67;;;;;;;-1.15;100.00;101020.06;5055560;28;20064;-72
2023/12/06 05:40:32;;;;;;;3.05;1.50;;;;;;;-1.15;100.00;101018.34;5055922;28;20053;-72
2023/12/06 05:43:00;;;;;;;4.40;1.42;;;;;;;-1.19;100.00;101032.00;5058181;28;20059;-72
2023/12/06 05:45:26;;;;;;;5.05;1.80;;;;;;;-1.37;100.00;101012.00;5051847;28;20049;-72
2023/12/06 05:47:53;;;;;;;6.35;1.65;;;;;;;-1.20;100.00;101019.97;5072086;28;20048;-72
2023/12/06 05:50:20;;;;;;;5.25;1.60;;;;;;;-1.12;100.00;101019.22;5061496;28;20129;-72
2023/12/06 05:52:46;;;;;;;3.85;1.63;;;;;;;-0.99;100.00;101027.13;5065135;28;20041;-72
2023/12/06 05:55:13;;;;;;;3.95;1.75;;;;;;;-1.10;100.00;101038.94;5042274;28;20521;-72
2023/12/06 05:57:40;;;;;;;3.78;1.63;;;;;;;-1.20;100.00;101029.41;5056026;28;20382;-71
2023/12/06 06:00:12;;;;;;;3.10;1.45;;;;;;;-1.10;100.00;101032.94;5051845;28;20114;-72
2023/12/06 06:02:40;;;;;;;2.65;1.33;;;;;;;-1.05;100.00;101033.88;5051648;28;20091;-72
2023/12/06 06:05:08;;;;;;;3.92;1.70;;;;;;;-1.06;100.00;101027.00;5049697;28;20057;-72
2023/12/06 06:07:35;;;;;;;3.80;1.70;;;;;;;-1.05;100.00;101032.16;5052198;28;20406;-72
2023/12/06 06:10:03;;;;;;;2.35;1.42;;;;;;;-1.18;100.00;101018.28;5052041;28;20052;-72
2023/12/06 06:12:31;;;;;;;4.03;1.70;;;;;;;-1.11;100.00;101026.09;5045249;28;20439;-72
2023/12/06 06:14:57;;;;;;;3.67;1.70;;;;;;;-1.09;100.00;101027.84;5045735;28;20041;-72
2023/12/06 06:17:24;;;;;;;3.55;1.80;;;;;;;-1.10;100.00;101027.81;5045360;28;20111;-72
2023/12/06 06:19:51;;;;;;;3.58;1.67;;;;;;;-1.13;100.00;101023.50;5051369;28;20049;-72
2023/12/06 06:22:18;;;;;;;6.20;1.98;;;;;;;-1.16;100.00;101026.88;5045513;28;20092;-72
2023/12/06 06:24:45;;;;;;;2.85;1.48;;;;;;;-1.16;100.00;101006.31;5047461;28;20049;-72
2023/12/06 06:27:12;;;;;;;4.85;1.92;;;;;;;-1.21;100.00;101020.81;5049761;28;20041;-72
2023/12/06 06:29:39;;;;;;;2.95;1.50;;;;;;;-1.14;100.00;101019.19;5051130;28;20056;-72
2023/12/06 06:32:06;;;;;;;4.43;1.98;;;;;;;-1.16;100.00;101018.31;5038866;28;20064;-72
2023/12/06 06:34:33;;;;;;;4.75;1.70;;;;;;;-1.03;100.00;101030.47;5038201;28;20144;-73
2023/12/06 06:37:00;;;;;;;2.72;1.45;;;;;;;-1.06;100.00;101021.88;5043474;28;20131;-71
2023/12/06 06:39:28;;;;;;;3.47;1.65;;;;;;;-1.11;100.00;101024.38;5032608;28;20084;-72
2023/12/06 06:41:55;;;;;;;3.78;1.60;;;;;;;-1.20;100.00;101014.84;5044739;28;20049;-72
2023/12/06 06:44:22;;;;;;;3.42;1.40;;;;;;;-1.22;100.00;101011.38;5049829;28;20044;-72
2023/12/06 06:46:49;;;;;;;3.22;1.33;;;;;;;-1.23;100.00;101021.63;5056283;28;20048;-72
2023/12/06 06:49:16;;;;;;;4.28;1.70;;;;;;;-1.51;100.00;101000.63;5047454;28;20045;-73
2023/12/06 06:51:43;;;;;;;5.50;1.73;;;;;;;-1.58;100.00;101015.06;5044482;28;20099;-73
2023/12/06 06:54:09;;;;;;;5.85;1.85;;;;;;;-1.49;100.00;101031.50;5049251;28;20041;-72
2023/12/06 06:56:37;;;;;;;3.25;1.75;;;;;;;-1.57;100.00;101031.38;5044371;28;20068;-72
2023/12/06 06:59:04;;;;;;;4.47;1.73;;;;;;;-1.61;100.00;101019.28;5045968;28;20056;-72
2023/12/06 07:01:30;;;;;;;2.83;1.58;;;;;;;-1.54;100.00;101009.16;5050023;28;20052;-73
2023/12/06 07:03:57;;;;;;;3.30;1.70;;;;;;;-1.40;100.00;101029.06;5045265;28;20045;-73
2023/12/06 07:06:24;;;;;;;3.25;1.92;;;;;;;-1.38;100.00;101037.66;5046001;28;20132;-72
2023/12/06 07:08:52;;;;;;;4.15;1.60;;;;;;;-1.31;100.00;101025.78;5048143;28;20056;-72
2023/12/06 07:11:18;;;;;;;2.85;1.58;;;;;;;-1.39;100.00;101002.56;5045745;28;20049;-72
2023/12/06 07:13:45;;;;;;;4.28;1.90;;;;;;;-1.48;100.00;101007.56;5047763;28;20045;-73
2023/12/06 07:16:11;;;;;;;6.93;2.38;;;;;;;-1.54;100.00;101016.88;5050848;28;20045;-73
2023/12/06 07:18:38;;;;;;;4.80;2.08;;;;;;;-1.58;100.00;101007.38;5045817;28;20053;-73
2023/12/06 07:21:05;;;;;;;4.55;1.52;;;;;;;-1.63;100.00;101020.97;5049949;28;20045;-73
2023/12/06 07:23:32;;;;;;;4.55;1.80;;;;;;;-1.60;100.00;101031.31;5049988;28;20051;-73
2023/12/06 07:25:59;;;;;;;3.75;1.60;;;;;;;-1.51;100.00;101022.91;5049091;28;20072;-73
2023/12/06 07:28:25;;;;;;;2.85;1.58;;;;;;;-1.43;100.00;101032.47;5048204;28;20049;-73
2023/12/06 07:30:55;;;;;;;4.43;2.15;;;;;;;-1.58;100.00;101025.34;5050931;28;20168;-73
2023/12/06 07:33:21;;;;;;;3.03;1.40;;;;;;;-1.47;100.00;101030.69;5047871;28;20049;-73
2023/12/06 07:35:48;;;;;;;4.85;1.85;;;;;;;-1.43;100.00;101041.88;5047491;28;20114;-72
2023/12/06 07:38:15;;;;;;;4.80;1.70;;;;;;;-1.52;100.00;101050.28;5047723;28;20056;-73
2023/12/06 07:40:42;;;;;;;6.70;2.00;;;;;;;-1.53;100.00;101051.97;5050103;28;20478;-72
2023/12/06 07:43:09;;;;;;;4.15;1.63;;;;;;;-1.53;100.00;101041.69;5047640;28;20110;-72
2023/12/06 07:45:35;;;;;;;3.60;1.70;;;;;;;-1.50;100.00;101038.34;5043125;28;20486;-72
2023/12/06 07:48:02;;;;;;;3.50;1.60;;;;;;;-1.42;100.00;101023.03;5048793;28;20136;-72
2023/12/06 07:50:29;;;;;;;4.22;1.40;;;;;;;-1.27;100.00;101032.72;5049858;28;20095;-73
2023/12/06 07:52:56;;;;;;;4.05;1.75;;;;;;;-1.38;100.00;101023.13;5047229;28;20160;-73
2023/12/06 07:55:23;;;;;;;3.58;1.70;;;;;;;-1.31;100.00;101036.94;5042334;28;20078;-73
2023/12/06 08:08:22;;;;;;;13.13;8.57;;;;;;;-1.73;100.00;101027.69;5172390;27;20881;-69
2023/12/06 08:10:49;;;;;;;8.88;4.78;;;;;;;-1.69;100.00;101016.63;5149389;27;20146;-70
2023/12/06 08:13:16;;;;;;;6.47;2.97;;;;;;;-1.70;100.00;100998.59;5154742;27;20042;-70
2023/12/06 08:15:43;;;;;;;8.55;3.80;;;;;;;-1.66;100.00;101024.38;5147523;27;20070;-70
2023/12/06 08:18:09;;;;;;;7.78;2.78;;;;;;;-1.80;100.00;101036.97;5145864;27;20055;-70
2023/12/06 08:20:36;;;;;;;10.40;3.28;;;;;;;-1.94;100.00;101023.88;5147644;27;20046;-70
2023/12/06 08:23:06;;;;;;;6.32;2.30;;;;;;;-1.99;100.00;101035.75;5146883;27;20054;-70
2023/12/06 08:25:33;;;;;;;5.55;2.50;;;;;;;-1.97;100.00;101039.22;5145613;27;20042;-70
2023/12/06 08:27:59;;;;;;;7.07;2.20;;;;;;;-1.95;100.00;101032.44;5147113;27;20038;-70
2023/12/06 08:30:26;;;;;;;4.90;1.90;;;;;;;-1.93;100.00;101022.16;5161944;27;20046;-70
2023/12/06 08:32:53;;;;;;;4.43;1.90;;;;;;;-1.69;100.00;101034.59;5168533;27;20057;-70
2023/12/06 08:35:20;;;;;;;7.97;2.13;;;;;;;-1.68;100.00;101020.91;5163029;27;20060;-70
2023/12/06 08:37:47;;;;;;;7.05;3.13;;;;;;;-1.72;100.00;101039.66;5147674;27;20039;-70
2023/12/06 08:40:14;;;;;;;4.88;2.20;;;;;;;-1.79;100.00;101043.84;5147456;27;20108;-70
2023/12/06 08:42:41;;;;;;;4.05;1.88;;;;;;;-1.69;100.00;101047.41;5151450;27;20038;-70
2023/12/06 08:45:08;;;;;;;4.22;1.90;;;;;;;-1.60;100.00;101051.84;5151443;27;20043;-70
2023/12/06 08:47:35;;;;;;;4.90;2.05;;;;;;;-1.55;100.00;101051.09;5147170;27;20054;-70
2023/12/06 08:50:04;;;;;;;6.38;2.00;;;;;;;-1.66;100.00;101037.22;5147291;27;20058;-70
2023/12/06 08:52:33;;;;;;;7.10;3.95;;;;;;;-1.51;100.00;101061.41;5148525;27;20073;-70
2023/12/06 08:54:59;;;;;;;5.35;1.92;;;;;;;-1.63;100.00;101019.31;5152545;27;20051;-70
2023/12/06 08:57:27;;;;;;;4.78;2.00;;;;;;;-1.33;100.00;101043.72;5160593;27;20126;-70
2023/12/06 08:59:54;;;;;;;7.05;2.22;;;;;;;-1.40;100.00;101027.38;5161964;27;20468;-70
2023/12/06 09:02:20;;;;;;;4.82;1.88;;;;;;;-1.31;100.00;101036.94;5155003;27;20042;-70
2023/12/06 09:04:47;;;;;;;6.20;2.25;;;;;;;-1.50;100.00;101048.59;5152937;27;20205;-70
2023/12/06 09:07:15;;;;;;;5.72;2.30;;;;;;;-1.60;100.00;101042.44;5165886;27;20095;-70
2023/12/06 09:09:45;;;;;;;6.50;2.13;;;;;;;-1.59;100.00;101049.31;5141971;27;20047;-70
2023/12/06 09:12:11;;;;;;;10.85;3.05;;;;;;;-1.65;100.00;101062.03;5138857;27;20046;-70
2023/12/06 09:14:38;;;;;;;4.63;2.00;;;;;;;-1.76;100.00;101031.03;5141215;27;20381;-70
2023/12/06 09:17:05;;;;;;;6.18;2.03;;;;;;;-1.51;100.00;101044.31;5147807;27;20039;-70
2023/12/06 09:19:34;;;;;;;8.10;2.65;;;;;;;-1.37;100.00;101041.97;5144190;27;20052;-70
2023/12/06 09:22:06;;;;;;;5.57;2.40;;;;;;;-1.31;100.00;101056.59;5144081;27;20499;-70
2023/12/06 09:24:33;;;;;;;4.43;1.90;;;;;;;-1.26;100.00;101039.56;5140824;27;20042;-70
2023/12/06 09:27:00;;;;;;;5.90;2.25;;;;;;;-1.22;100.00;101043.91;5139356;27;20047;-70
2023/12/06 09:29:27;;;;;;;3.13;1.70;;;;;;;-1.12;100.00;101044.91;5145445;27;20340;-70
2023/12/06 09:31:54;;;;;;;4.82;1.95;;;;;;;-1.05;100.00;101036.47;5147703;27;20043;-70
2023/12/06 09:34:21;;;;;;;5.20;1.85;;;;;;;-0.90;100.00;101043.50;5135277;27;20095;-70
2023/12/06 09:37:03;;;;;;;5.80;1.92;;;;;;;-1.01;100.00;101051.97;5143994;27;20047;-70
2023/12/06 09:39:30;;;;;;;7.00;2.33;;;;;;;-0.98;100.00;101056.28;5133173;27;20047;-70
2023/12/06 09:41:56;;;;;;;4.53;1.77;;;;;;;-0.99;100.00;101045.13;5133468;27;20420;-70
2023/12/06 09:44:23;;;;;;;4.82;2.05;;;;;;;-0.91;100.00;101050.38;5131978;27;20051;-70
2023/12/06 09:46:54;;;;;;;4.18;1.88;;;;;;;-0.92;100.00;101030.66;5143002;27;20157;-70
2023/12/06 09:49:21;;;;;;;4.88;2.20;;;;;;;-0.75;100.00;101040.31;5133930;27;20044;-70
2023/12/06 09:51:48;;;;;;;5.93;2.17;;;;;;;-0.83;100.00;101030.78;5141377;27;20059;-70
2023/12/06 09:54:14;;;;;;;5.30;2.25;;;;;;;-0.68;100.00;101037.84;5132964;27;20054;-69
2023/12/06 09:56:42;;;;;;;6.95;2.30;;;;;;;-0.58;100.00;101036.25;5120294;27;20043;-69
2023/12/06 09:59:08;;;;;;;5.88;2.40;;;;;;;-0.55;100.00;101043.13;5134584;27;20051;-69
2023/12/06 10:01:35;;;;;;;6.72;2.33;;;;;;;-0.48;100.00;101039.81;5138729;27;20061;-69
2023/12/06 10:04:03;;;;;;;6.05;2.20;;;;;;;-0.41;100.00;101032.19;5135488;27;20047;-69
2023/12/06 10:06:30;;;;;;;7.57;2.90;;;;;;;-0.40;100.00;101031.34;5136576;27;20051;-70
2023/12/06 10:08:58;;;;;;;6.32;2.40;;;;;;;-0.36;100.00;101026.22;5152624;27;20488;-70
2023/12/06 10:11:25;;;;;;;8.05;2.60;;;;;;;-0.31;100.00;101030.59;5141161;27;20494;-70
2023/12/06 10:13:52;;;;;;;9.30;3.95;;;;;;;-0.46;100.00;101032.97;5147904;27;20046;-70
2023/12/06 10:16:20;;;;;;;8.75;3.63;;;;;;;-0.44;100.00;101039.88;5141518;27;20055;-70
2023/12/06 10:18:52;;;;;;;8.05;3.08;;;;;;;-0.41;100.00;101031.31;5145826;27;20039;-70
2023/12/06 10:21:20;;;;;;;8.50;3.13;;;;;;;-0.39;100.00;101039.91;5132130;27;20446;-70
2023/12/06 10:23:58;;;;;;;8.43;2.70;;;;;;;-0.32;100.00;101043.44;5142479;27;20791;-70
2023/12/06 10:26:28;;;;;;;8.57;2.50;;;;;;;-0.25;100.00;101047.78;5141570;27;20475;-70
2023/12/06 10:28:58;;;;;;;6.38;2.47;;;;;;;-0.38;100.00;101014.19;5140966;27;20061;-70
2023/12/06 10:31:26;;;;;;;8.20;2.85;;;;;;;-0.24;100.00;101016.09;5140618;27;20057;-70
2023/12/06 10:33:55;;;;;;;9.35;3.00;;;;;;;-0.08;100.00;101032.56;5141619;27;20055;-70
2023/12/06 10:36:25;;;;;;;11.90;3.67;;;;;;;-0.01;100.00;101027.47;5139340;27;20701;-70
2023/12/06 10:38:54;;;;;;;6.68;2.30;;;;;;;-0.02;100.00;101020.63;5138543;27;20054;-70
2023/12/06 10:41:25;;;;;;;6.85;2.65;;;;;;;0.04;100.00;101016.38;5122594;27;20086;-70
2023/12/06 10:43:56;;;;;;;8.60;3.17;;;;;;;-0.03;100.00;100995.72;5131016;27;20149;-70
2023/12/06 10:46:24;;;;;;;12.23;3.67;;;;;;;0.13;100.00;101014.75;5123903;27;20051;-70
2023/12/06 10:48:54;;;;;;;11.40;3.63;;;;;;;0.00;100.00;101002.63;5132723;27;20138;-70
2023/12/06 10:51:21;;;;;;;8.43;2.88;;;;;;;0.03;100.00;101004.34;5136269;27;20089;-70
2023/12/06 10:53:48;;;;;;;6.97;2.65;;;;;;;0.14;100.00;101015.59;5147103;27;20070;-70
2023/12/06 10:56:17;;;;;;;8.63;2.90;;;;;;;0.16;100.00;100998.44;5141077;27;20480;-70
2023/12/06 10:58:44;;;;;;;6.82;2.38;;;;;;;0.31;100.00;101014.06;5147041;27;20392;-70
2023/12/06 11:01:12;;;;;;;11.50;3.53;;;;;;;0.34;100.00;101021.81;5140311;27;20049;-70
2023/12/06 11:03:40;;;;;;;8.27;2.83;;;;;;;0.42;100.00;101002.97;5132928;27;20055;-70
2023/12/06 11:06:22;;;;;;;7.50;2.53;;;;;;;0.55;100.00;100995.38;5130538;27;20046;-70
2023/12/06 11:09:08;;;;;;;7.88;2.47;;;;;;;0.65;100.00;100996.28;5147082;27;20472;-70
2023/12/06 11:11:44;;;;;;;8.75;3.28;;;;;;;0.66;100.00;100999.75;5135503;27;20119;-70
2023/12/06 11:14:11;;;;;;;7.43;2.75;;;;;;;0.73;100.00;101004.94;5137418;27;20055;-70
2023/12/06 11:17:12;;;;;;;8.48;3.00;;;;;;;0.85;100.00;100992.97;5151832;27;20053;-70
2023/12/06 11:19:39;;;;;;;7.57;2.75;;;;;;;0.83;100.00;100998.13;5130909;27;20045;-70
2023/12/06 11:22:07;;;;;;;7.10;3.20;;;;;;;0.71;100.00;100970.56;5134426;27;20047;-70
2023/12/06 11:24:35;;;;;;;7.28;2.80;;;;;;;0.84;100.00;100983.53;5130809;27;20043;-70
2023/12/06 11:27:03;;;;;;;7.93;3.15;;;;;;;0.82;100.00;100982.69;5131681;27;20369;-70
2023/12/06 11:29:30;;;;;;;8.75;3.13;;;;;;;0.83;100.00;100982.66;5135699;27;20039;-70
2023/12/06 11:31:58;;;;;;;6.03;2.47;;;;;;;0.85;100.00;100972.38;5144528;27;20583;-70